createdAt,value
2018-07-17T00:01:06.959Z,19.77
2018-07-17T00:03:35.074Z,19.74
2018-07-17T00:06:04.011Z,19.70
2018-07-17T00:08:32.557Z,19.66
2018-07-17T00:11:00.574Z,19.54
2018-07-17T00:13:28.722Z,19.60
2018-07-17T00:15:57.376Z,19.57
2018-07-17T00:18:25.507Z,19.53
2018-07-17T00:20:54.474Z,19.49
2018-07-17T00:23:22.934Z,19.45
2018-07-17T00:25:51.127Z,19.41
2018-07-17T00:28:19.137Z,19.21
2018-07-17T00:30:47.776Z,19.33
2018-07-17T00:33:16.002Z,19.31
2018-07-17T00:35:44.970Z,19.28
2018-07-17T00:38:13.398Z,19.25
2018-07-17T00:40:41.471Z,19.23
2018-07-17T00:43:09.673Z,19.21
2018-07-17T00:45:38.218Z,19.18
2018-07-17T00:48:07.007Z,19.15
2018-07-17T00:50:35.045Z,19.11
2018-07-17T00:53:04.161Z,19.10
2018-07-17T00:55:32.799Z,19.08
2018-07-17T00:58:01.285Z,19.04
2018-07-17T01:00:35.330Z,18.85
2018-07-17T01:03:09.042Z,19.03
2018-07-17T01:05:43.035Z,19.01
2018-07-17T01:08:16.494Z,18.99
2018-07-17T01:10:50.271Z,18.96
2018-07-17T01:13:31.877Z,18.94
2018-07-17T01:16:00.307Z,18.66
2018-07-17T01:18:28.603Z,18.90
2018-07-17T01:20:57.009Z,18.88
2018-07-17T01:23:25.674Z,18.86
2018-07-17T01:25:54.035Z,18.82
2018-07-17T01:28:22.265Z,18.79
2018-07-17T01:30:51.122Z,18.51
2018-07-17T01:33:20.171Z,18.73
2018-07-17T01:35:48.219Z,18.70
2018-07-17T01:38:17.267Z,18.67
2018-07-17T01:40:45.727Z,18.65
2018-07-17T01:43:14.779Z,18.54
2018-07-17T01:45:43.968Z,18.59
2018-07-17T01:48:11.987Z,18.57
2018-07-17T01:50:40.014Z,18.55
2018-07-17T01:53:09.039Z,18.53
2018-07-17T01:55:37.305Z,18.31
2018-07-17T01:58:05.663Z,18.43
2018-07-17T02:00:34.517Z,18.41
2018-07-17T02:03:02.750Z,18.37
2018-07-17T02:05:31.004Z,17.85
2018-07-17T02:07:59.470Z,18.30
2018-07-17T02:10:27.605Z,18.28
2018-07-17T02:12:55.855Z,17.93
2018-07-17T02:15:25.765Z,16.65
2018-07-17T02:17:53.774Z,18.22
2018-07-17T02:20:21.817Z,18.20
2018-07-17T02:22:50.253Z,18.17
2018-07-17T02:25:18.411Z,18.13
2018-07-17T02:27:48.173Z,18.11
2018-07-17T02:30:16.569Z,18.09
2018-07-17T02:32:44.633Z,18.06
2018-07-17T02:35:12.906Z,18.03
2018-07-17T02:37:41.308Z,18.01
2018-07-17T02:40:09.660Z,17.97
2018-07-17T02:42:39.164Z,17.94
2018-07-17T02:45:07.733Z,17.90
2018-07-17T02:47:37.222Z,17.87
2018-07-17T02:50:10.027Z,17.84
2018-07-17T02:52:39.303Z,17.81
2018-07-17T02:55:08.200Z,17.78
2018-07-17T02:57:37.441Z,17.74
2018-07-17T03:00:05.522Z,17.71
2018-07-17T03:02:34.282Z,17.67
2018-07-17T03:05:03.274Z,17.66
2018-07-17T03:07:34.473Z,17.65
2018-07-17T03:10:03.054Z,16.86
2018-07-17T03:12:31.669Z,17.62
2018-07-17T03:14:59.893Z,17.61
2018-07-17T03:17:27.940Z,17.58
2018-07-17T03:19:56.638Z,17.56
2018-07-17T03:22:24.672Z,17.55
2018-07-17T03:24:52.682Z,17.53
2018-07-17T03:27:21.944Z,17.53
2018-07-17T03:29:52.485Z,17.49
2018-07-17T03:32:20.483Z,17.49
2018-07-17T03:34:48.831Z,17.49
2018-07-17T03:37:16.843Z,17.48
2018-07-17T03:39:44.975Z,17.45
2018-07-17T03:42:14.181Z,17.45
2018-07-17T03:44:42.238Z,17.44
2018-07-17T03:47:10.732Z,17.44
2018-07-17T03:49:38.772Z,17.42
2018-07-17T03:52:07.250Z,17.41
2018-07-17T03:54:35.591Z,17.41
2018-07-17T03:57:03.610Z,17.41
2018-07-17T03:59:32.410Z,17.41
2018-07-17T04:02:00.430Z,17.13
2018-07-17T04:04:28.422Z,17.41
2018-07-17T04:06:56.849Z,17.40
2018-07-17T04:09:25.121Z,17.41
2018-07-17T04:12:00.744Z,17.43
2018-07-17T04:14:29.817Z,17.43
2018-07-17T04:16:59.073Z,17.07
2018-07-17T04:19:27.595Z,17.44
2018-07-17T04:21:56.450Z,17.46
2018-07-17T04:24:24.929Z,17.47
2018-07-17T04:26:57.541Z,17.48
2018-07-17T04:29:26.410Z,17.47
2018-07-17T04:31:55.066Z,17.50
2018-07-17T04:34:23.844Z,17.18
2018-07-17T04:36:52.636Z,17.52
2018-07-17T04:39:20.606Z,17.53
2018-07-17T04:41:48.584Z,17.57
2018-07-17T04:44:19.496Z,17.61
2018-07-17T04:46:47.801Z,17.64
2018-07-17T04:49:15.850Z,17.52
2018-07-17T04:51:44.617Z,17.71
2018-07-17T04:54:12.640Z,17.74
2018-07-17T04:56:40.759Z,17.79
2018-07-17T04:59:09.377Z,17.83
2018-07-17T05:01:37.915Z,17.88
2018-07-17T05:04:06.123Z,17.78
2018-07-17T05:06:34.814Z,17.96
2018-07-17T05:09:03.899Z,17.91
2018-07-17T05:11:32.491Z,18.01
2018-07-17T05:14:01.973Z,17.99
2018-07-17T05:16:30.158Z,17.93
2018-07-17T05:18:58.416Z,17.90
2018-07-17T05:21:26.766Z,18.17
2018-07-17T05:23:54.768Z,18.21
2018-07-17T05:26:22.795Z,18.26
2018-07-17T05:28:52.050Z,18.30
2018-07-17T05:31:20.246Z,18.35
2018-07-17T05:33:48.649Z,18.39
2018-07-17T05:36:18.391Z,18.45
2018-07-17T05:38:46.362Z,18.50
2018-07-17T05:41:15.197Z,18.18
2018-07-17T05:43:43.989Z,18.62
2018-07-17T05:46:12.026Z,18.68
2018-07-17T05:48:40.162Z,18.72
2018-07-17T05:51:08.487Z,18.80
2018-07-17T05:53:36.478Z,18.86
2018-07-17T05:56:04.587Z,18.92
2018-07-17T05:58:33.107Z,18.99
2018-07-17T06:01:01.248Z,19.07
2018-07-17T06:03:29.247Z,19.15
2018-07-17T06:05:57.957Z,19.22
2018-07-17T06:08:25.981Z,19.29
2018-07-17T06:10:54.271Z,19.38
2018-07-17T06:13:22.679Z,19.47
2018-07-17T06:15:50.777Z,19.54
2018-07-17T06:18:18.951Z,19.66
2018-07-17T06:20:46.995Z,19.76
2018-07-17T06:23:15.023Z,19.89
2018-07-17T06:25:43.639Z,20.04
2018-07-17T06:28:13.479Z,20.10
2018-07-17T06:30:41.536Z,20.10
2018-07-17T06:33:09.523Z,20.28
2018-07-17T06:35:39.282Z,20.38
2018-07-17T06:38:07.580Z,20.45
2018-07-17T06:40:35.591Z,20.55
2018-07-17T06:43:04.550Z,20.13
2018-07-17T06:45:32.590Z,20.78
2018-07-17T06:48:00.708Z,20.85
2018-07-17T06:50:28.891Z,20.90
2018-07-17T06:52:57.251Z,20.98
2018-07-17T06:55:25.295Z,21.04
2018-07-17T06:57:56.335Z,20.54
2018-07-17T07:00:24.538Z,21.32
2018-07-17T07:02:53.983Z,21.48
2018-07-17T07:05:22.135Z,21.66
2018-07-17T07:07:50.324Z,21.83
2018-07-17T07:10:19.185Z,22.03
2018-07-17T07:12:47.838Z,22.19
2018-07-17T07:15:16.359Z,22.41
2018-07-17T07:17:47.722Z,22.65
2018-07-17T07:20:16.723Z,22.97
2018-07-17T07:22:45.843Z,23.29
2018-07-17T07:25:14.009Z,23.71
2018-07-17T07:27:43.292Z,23.72
2018-07-17T07:30:14.970Z,24.25
2018-07-17T07:32:43.370Z,23.92
2018-07-17T07:35:14.668Z,24.96
2018-07-17T07:37:45.271Z,25.25
2018-07-17T07:40:13.604Z,25.45
2018-07-17T07:42:42.791Z,25.44
2018-07-17T07:45:14.697Z,25.83
2018-07-17T07:47:43.443Z,26.07
2018-07-17T07:50:11.780Z,26.32
2018-07-17T07:52:41.177Z,26.48
2018-07-17T07:55:09.250Z,26.75
2018-07-17T07:57:40.856Z,26.96
2018-07-17T08:00:12.242Z,26.10
2018-07-17T08:02:45.257Z,27.30
2018-07-17T08:05:13.865Z,27.43
2018-07-17T08:07:41.966Z,27.50
2018-07-17T08:10:14.524Z,27.70
2018-07-17T08:12:43.858Z,27.12
2018-07-17T08:15:13.290Z,27.97
2018-07-17T08:18:06.521Z,27.18
2018-07-17T08:20:38.145Z,28.31
2018-07-17T08:23:06.918Z,28.67
2018-07-17T08:25:36.760Z,28.85
2018-07-17T08:28:07.925Z,28.85
2018-07-17T08:30:36.423Z,29.31
2018-07-17T08:33:06.755Z,29.45
2018-07-17T08:35:34.886Z,29.60
2018-07-17T08:38:03.993Z,29.71
2018-07-17T08:40:33.695Z,29.90
2018-07-17T08:43:02.028Z,30.08
2018-07-17T08:45:33.617Z,30.32
2018-07-17T08:48:02.889Z,30.26
2018-07-17T08:50:31.261Z,30.40
2018-07-17T08:53:00.077Z,30.42
2018-07-17T08:55:33.763Z,30.51
2018-07-17T08:58:02.327Z,30.68
2018-07-17T09:00:32.421Z,30.08
2018-07-17T09:03:00.899Z,31.10
2018-07-17T09:05:29.053Z,31.27
2018-07-17T09:07:57.165Z,31.36
2018-07-17T09:10:27.241Z,31.67
2018-07-17T09:12:55.767Z,31.56
2018-07-17T09:15:27.904Z,31.45
2018-07-17T09:17:56.581Z,31.69
2018-07-17T09:20:27.300Z,31.70
2018-07-17T09:22:55.714Z,31.72
2018-07-17T09:25:25.171Z,31.68
2018-07-17T09:27:56.584Z,31.73
2018-07-17T09:30:29.618Z,31.92
2018-07-17T09:32:58.293Z,32.07
2018-07-17T09:35:26.934Z,32.22
2018-07-17T09:37:55.193Z,32.44
2018-07-17T09:40:24.172Z,32.54
2018-07-17T09:42:57.668Z,31.85
2018-07-17T09:45:26.140Z,32.75
2018-07-17T09:47:55.492Z,32.93
2018-07-17T09:50:24.791Z,33.11
2018-07-17T09:52:56.493Z,32.99
2018-07-17T09:55:29.228Z,33.10
2018-07-17T09:57:59.168Z,33.00
2018-07-17T10:00:35.101Z,33.22
2018-07-17T10:03:05.153Z,32.91
2018-07-17T10:05:35.228Z,32.72
2018-07-17T10:08:09.308Z,33.19
2018-07-17T10:10:38.417Z,33.59
2018-07-17T10:13:13.416Z,33.77
2018-07-17T10:15:47.381Z,33.82
2018-07-17T10:18:25.253Z,33.53
2018-07-17T10:20:53.798Z,32.89
2018-07-17T10:23:28.154Z,32.22
2018-07-17T10:25:59.574Z,32.57
2018-07-17T10:28:28.282Z,32.72
2018-07-17T10:30:56.577Z,33.01
2018-07-17T10:33:30.575Z,32.99
2018-07-17T10:36:01.247Z,32.09
2018-07-17T10:38:37.223Z,32.19
2018-07-17T10:41:11.204Z,31.72
2018-07-17T10:43:45.333Z,31.45
2018-07-17T10:46:16.724Z,31.31
2018-07-17T10:48:46.174Z,31.36
2018-07-17T10:51:15.871Z,31.25
2018-07-17T10:53:45.582Z,31.16
2018-07-17T10:56:13.837Z,31.11
2018-07-17T10:58:41.963Z,31.21
2018-07-17T11:01:10.415Z,31.31
2018-07-17T11:03:38.658Z,31.15
2018-07-17T11:06:07.544Z,30.96
2018-07-17T11:08:36.845Z,30.78
2018-07-17T11:11:05.205Z,30.62
2018-07-17T11:13:33.465Z,30.40
2018-07-17T11:16:01.979Z,30.60
2018-07-17T11:18:30.169Z,30.62
2018-07-17T11:20:58.269Z,30.70
2018-07-17T11:23:27.219Z,30.78
2018-07-17T11:25:56.541Z,31.16
2018-07-17T11:28:25.820Z,31.42
2018-07-17T11:30:54.392Z,31.78
2018-07-17T11:33:22.623Z,31.86
2018-07-17T11:35:51.005Z,31.87
2018-07-17T11:38:20.791Z,32.01
2018-07-17T11:40:49.988Z,32.43
2018-07-17T11:43:18.419Z,32.55
2018-07-17T11:45:46.988Z,32.19
2018-07-17T11:48:15.200Z,31.81
2018-07-17T11:50:43.279Z,31.78
2018-07-17T11:53:12.203Z,32.00
2018-07-17T11:55:40.529Z,32.32
2018-07-17T11:58:09.350Z,32.43
2018-07-17T12:00:37.847Z,32.68
2018-07-17T12:03:06.100Z,32.77
2018-07-17T12:05:34.316Z,32.88
2018-07-17T12:08:03.289Z,33.07
2018-07-17T12:10:32.427Z,33.29
2018-07-17T12:13:00.780Z,33.29
2018-07-17T12:15:29.429Z,33.31
2018-07-17T12:17:57.659Z,33.34
2018-07-17T12:20:25.980Z,33.23
2018-07-17T12:22:54.014Z,33.15
2018-07-17T12:25:22.194Z,33.27
2018-07-17T12:27:51.028Z,33.42
2018-07-17T12:30:19.271Z,33.36
2018-07-17T12:32:47.482Z,33.26
2018-07-17T12:35:15.893Z,33.15
2018-07-17T12:37:44.024Z,33.10
2018-07-17T12:40:12.069Z,33.08
2018-07-17T12:42:40.255Z,33.02
2018-07-17T12:45:08.360Z,33.23
2018-07-17T12:47:36.980Z,33.56
2018-07-17T12:50:06.813Z,33.52
2018-07-17T12:52:35.387Z,33.67
2018-07-17T12:55:03.742Z,33.75
2018-07-17T12:57:31.992Z,33.83
2018-07-17T13:00:00.111Z,33.85
2018-07-17T13:02:28.519Z,33.76
2018-07-17T13:04:57.489Z,33.78
2018-07-17T13:07:26.126Z,33.68
2018-07-17T13:09:54.316Z,33.62
2018-07-17T13:12:23.047Z,33.69
2018-07-17T13:14:51.228Z,33.83
2018-07-17T13:17:20.540Z,33.88
2018-07-17T13:19:49.655Z,33.76
2018-07-17T13:22:18.567Z,33.72
2018-07-17T13:24:46.718Z,33.78
2018-07-17T13:27:15.221Z,33.53
2018-07-17T13:29:45.063Z,33.38
2018-07-17T13:32:13.558Z,33.49
2018-07-17T13:34:42.000Z,33.59
2018-07-17T13:37:10.248Z,33.62
2018-07-17T13:39:38.839Z,33.70
2018-07-17T13:42:06.988Z,33.72
2018-07-17T13:44:37.290Z,33.39
2018-07-17T13:47:06.852Z,33.36
2018-07-17T13:49:35.468Z,33.29
2018-07-17T13:52:05.453Z,33.11
2018-07-17T13:54:34.787Z,32.89
2018-07-17T13:57:03.425Z,32.89
2018-07-17T13:59:33.401Z,32.98
2018-07-17T14:02:04.068Z,32.96
2018-07-17T14:04:32.725Z,32.85
2018-07-17T14:07:01.083Z,32.76
2018-07-17T14:09:31.072Z,32.89
2018-07-17T14:12:00.380Z,32.84
2018-07-17T14:14:29.859Z,32.87
2018-07-17T14:16:58.773Z,32.70
2018-07-17T14:19:27.500Z,32.65
2018-07-17T14:21:56.626Z,32.12
2018-07-17T14:24:25.812Z,32.52
2018-07-17T14:26:59.726Z,32.52
2018-07-17T14:29:28.300Z,32.63
2018-07-17T14:31:56.483Z,32.65
2018-07-17T14:34:25.839Z,32.99
2018-07-17T14:36:54.891Z,33.09
2018-07-17T14:39:23.530Z,33.09
2018-07-17T14:41:52.367Z,33.13
2018-07-17T14:44:21.341Z,33.21
2018-07-17T14:46:49.807Z,33.24
2018-07-17T14:49:19.159Z,33.22
2018-07-17T14:51:47.349Z,33.09
2018-07-17T14:54:15.453Z,32.93
2018-07-17T14:56:44.002Z,32.78
2018-07-17T14:59:12.290Z,32.87
2018-07-17T15:01:40.443Z,32.93
2018-07-17T15:04:09.573Z,32.79
2018-07-17T15:06:37.955Z,32.64
2018-07-17T15:09:07.881Z,32.60
2018-07-17T15:11:36.459Z,32.70
2018-07-17T15:14:05.005Z,32.90
2018-07-17T15:16:33.183Z,33.02
2018-07-17T15:19:01.957Z,33.05
2018-07-17T15:21:30.152Z,33.06
2018-07-17T15:23:58.296Z,33.00
2018-07-17T15:26:26.859Z,33.02
2018-07-17T15:28:54.922Z,33.01
2018-07-17T15:31:28.826Z,32.99
2018-07-17T15:33:57.429Z,32.88
2018-07-17T15:36:25.967Z,32.84
2018-07-17T15:38:54.139Z,32.80
2018-07-17T15:41:24.057Z,32.72
2018-07-17T15:43:52.728Z,32.76
2018-07-17T15:46:21.414Z,32.84
2018-07-17T15:48:50.525Z,32.90
2018-07-17T15:51:19.779Z,32.93
2018-07-17T15:53:49.182Z,32.88
2018-07-17T15:56:18.353Z,32.88
2018-07-17T15:58:46.928Z,32.79
2018-07-17T16:01:21.150Z,32.66
2018-07-17T16:03:51.076Z,32.34
2018-07-17T16:06:20.009Z,32.54
2018-07-17T16:08:48.833Z,32.57
2018-07-17T16:11:17.897Z,32.54
2018-07-17T16:13:46.189Z,32.43
2018-07-17T16:16:14.424Z,32.52
2018-07-17T16:18:43.718Z,32.59
2018-07-17T16:21:12.006Z,32.59
2018-07-17T16:23:40.428Z,32.54
2018-07-17T16:26:08.992Z,32.52
2018-07-17T16:28:37.192Z,32.55
2018-07-17T16:31:05.645Z,32.53
2018-07-17T16:33:34.045Z,32.48
2018-07-17T16:36:02.773Z,32.43
2018-07-17T16:38:34.295Z,32.41
2018-07-17T16:41:02.737Z,32.40
2018-07-17T16:43:30.978Z,32.36
2018-07-17T16:45:59.523Z,32.37
2018-07-17T16:48:27.639Z,32.35
2018-07-17T16:50:55.725Z,32.25
2018-07-17T16:53:26.485Z,32.21
2018-07-17T16:55:54.805Z,32.01
2018-07-17T16:58:22.850Z,32.15
2018-07-17T17:00:51.338Z,32.19
2018-07-17T17:03:19.424Z,32.14
2018-07-17T17:05:47.484Z,32.08
2018-07-17T17:08:15.613Z,31.95
2018-07-17T17:10:44.908Z,31.90
2018-07-17T17:13:13.231Z,31.95
2018-07-17T17:15:41.840Z,31.71
2018-07-17T17:18:10.101Z,31.68
2018-07-17T17:20:38.240Z,31.77
2018-07-17T17:23:06.377Z,31.73
2018-07-17T17:25:34.456Z,31.73
2018-07-17T17:28:03.120Z,31.71
2018-07-17T17:30:31.792Z,31.67
2018-07-17T17:33:01.424Z,31.42
2018-07-17T17:35:29.827Z,31.59
2018-07-17T17:37:58.004Z,31.59
2018-07-17T17:40:26.118Z,31.62
2018-07-17T17:42:54.299Z,31.64
2018-07-17T17:45:22.960Z,31.63
2018-07-17T17:47:51.167Z,31.62
2018-07-17T17:50:19.296Z,31.62
2018-07-17T17:52:47.544Z,31.56
2018-07-17T17:55:15.658Z,31.48
2018-07-17T17:57:43.791Z,31.37
2018-07-17T18:00:12.344Z,31.24
2018-07-17T18:02:40.578Z,31.12
2018-07-17T18:05:09.150Z,31.06
2018-07-17T18:07:38.514Z,30.97
2018-07-17T18:10:07.266Z,31.00
2018-07-17T18:12:36.023Z,30.96
2018-07-17T18:15:05.657Z,30.87
2018-07-17T18:17:33.844Z,30.78
2018-07-17T18:20:02.269Z,30.65
2018-07-17T18:22:30.861Z,30.69
2018-07-17T18:24:59.190Z,30.60
2018-07-17T18:27:28.118Z,30.47
2018-07-17T18:29:57.908Z,30.38
2018-07-17T18:32:26.640Z,30.31
2018-07-17T18:34:57.094Z,30.21
2018-07-17T18:37:31.395Z,30.05
2018-07-17T18:39:59.979Z,29.83
2018-07-17T18:42:28.863Z,29.60
2018-07-17T18:44:58.066Z,28.96
2018-07-17T18:47:27.345Z,29.43
2018-07-17T18:50:12.862Z,29.33
2018-07-17T18:52:50.665Z,29.22
2018-07-17T18:55:19.291Z,29.15
2018-07-17T18:57:53.939Z,29.07
2018-07-17T19:00:39.126Z,28.86
2018-07-17T19:03:30.259Z,27.87
2018-07-17T19:06:04.338Z,28.80
2018-07-17T19:08:40.320Z,28.72
2018-07-17T19:11:20.126Z,28.43
2018-07-17T19:13:51.546Z,28.57
2018-07-17T19:16:26.232Z,28.34
2018-07-17T19:18:56.402Z,28.41
2018-07-17T19:21:39.218Z,28.33
2018-07-17T19:27:03.386Z,27.96
2018-07-17T19:29:46.724Z,28.13
2018-07-17T19:32:30.627Z,28.06
2018-07-17T19:35:05.322Z,27.65
2018-07-17T19:37:36.075Z,27.94
2018-07-17T19:40:07.710Z,27.91
2018-07-17T19:42:42.738Z,27.86
2018-07-17T19:45:20.698Z,27.83
2018-07-17T19:47:52.372Z,27.78
2018-07-17T19:50:21.082Z,27.72
2018-07-17T19:52:54.682Z,27.40
2018-07-17T19:58:23.178Z,27.56
2018-07-17T20:01:04.164Z,27.51
2018-07-17T20:03:40.415Z,27.45
2018-07-17T20:06:10.611Z,27.24
2018-07-17T20:08:39.979Z,27.31
2018-07-17T20:11:14.898Z,27.25
2018-07-17T20:13:50.890Z,27.18
2018-07-17T20:16:19.329Z,27.11
2018-07-17T20:18:53.648Z,27.02
2018-07-17T20:21:31.926Z,26.61
2018-07-17T20:24:06.101Z,26.88
2018-07-17T20:26:35.934Z,26.80
2018-07-17T20:29:06.138Z,26.75
2018-07-17T20:31:36.680Z,26.45
2018-07-17T20:37:33.544Z,26.57
2018-07-17T20:40:02.385Z,26.53
2018-07-17T20:42:33.175Z,26.47
2018-07-17T20:45:03.689Z,26.45
2018-07-17T20:47:36.159Z,26.42
2018-07-17T20:50:05.394Z,25.77
2018-07-17T20:52:34.845Z,26.28
2018-07-17T20:55:09.300Z,26.31
2018-07-17T20:57:38.289Z,26.26
2018-07-17T21:00:07.137Z,26.21
2018-07-17T21:02:42.972Z,26.16
2018-07-17T21:05:12.219Z,26.12
2018-07-17T21:07:45.563Z,26.08
2018-07-17T21:10:15.187Z,26.03
2018-07-17T21:12:44.813Z,26.00
2018-07-17T21:15:15.881Z,25.11
2018-07-17T21:17:46.060Z,25.94
2018-07-17T21:20:15.781Z,25.89
2018-07-17T21:22:49.452Z,25.85
2018-07-17T21:25:22.322Z,25.82
2018-07-17T21:27:52.335Z,25.78
2018-07-17T21:30:21.402Z,25.72
2018-07-17T21:32:50.136Z,25.68
2018-07-17T21:35:18.482Z,25.64
2018-07-17T21:37:46.573Z,25.61
2018-07-17T21:40:15.203Z,25.57
2018-07-17T21:42:43.423Z,25.53
2018-07-17T21:45:11.511Z,25.50
2018-07-17T21:47:39.979Z,25.24
2018-07-17T21:50:08.166Z,25.43
2018-07-17T21:52:36.588Z,25.40
2018-07-17T21:55:05.830Z,25.37
2018-07-17T21:57:33.919Z,25.34
2018-07-17T22:00:03.184Z,25.32
2018-07-17T22:02:31.743Z,25.30
2018-07-17T22:05:00.986Z,25.28
2018-07-17T22:07:29.614Z,25.24
2018-07-17T22:09:58.385Z,25.21
2018-07-17T22:12:26.915Z,25.20
2018-07-17T22:14:55.586Z,25.19
2018-07-17T22:17:23.735Z,25.17
2018-07-17T22:19:51.831Z,25.15
2018-07-17T22:22:21.171Z,25.11
2018-07-17T22:24:51.912Z,25.09
2018-07-17T22:27:20.749Z,25.06
2018-07-17T22:29:49.030Z,24.73
2018-07-17T22:32:17.304Z,24.91
2018-07-17T22:34:45.603Z,24.96
2018-07-17T22:37:14.566Z,24.93
2018-07-17T22:39:42.683Z,24.90
2018-07-17T22:42:11.138Z,24.86
2018-07-17T22:44:39.663Z,24.84
2018-07-17T22:47:07.757Z,24.81
2018-07-17T22:49:35.914Z,24.80
2018-07-17T22:52:05.251Z,24.76
2018-07-17T22:54:33.724Z,24.70
2018-07-17T22:57:02.104Z,24.64
2018-07-17T22:59:30.277Z,24.58
2018-07-17T23:01:58.463Z,24.52
2018-07-17T23:04:26.590Z,24.47
2018-07-17T23:06:55.497Z,24.44
2018-07-17T23:09:24.215Z,24.47
2018-07-17T23:11:52.477Z,24.49
2018-07-17T23:14:21.649Z,24.49
2018-07-17T23:16:49.757Z,24.49
2018-07-17T23:19:18.190Z,24.48
2018-07-17T23:21:47.130Z,24.22
2018-07-17T23:24:16.057Z,24.50
2018-07-17T23:26:44.621Z,24.49
2018-07-17T23:29:13.647Z,24.41
2018-07-17T23:31:41.971Z,24.43
2018-07-17T23:34:12.345Z,24.41
2018-07-17T23:36:40.806Z,24.37
2018-07-17T23:39:11.013Z,24.35
2018-07-17T23:41:39.356Z,24.31
2018-07-17T23:44:07.610Z,24.27
2018-07-17T23:46:37.766Z,24.22
2018-07-17T23:49:06.007Z,24.17
2018-07-17T23:51:34.948Z,24.12
2018-07-17T23:54:05.592Z,24.09
2018-07-17T23:56:36.820Z,23.89
2018-07-17T23:59:06.151Z,24.02
